Time;durP1;ratioP1;P1;durP2;ratioP2;P2;SDS_P1;SDS_P2;PMS_P1;PMS_P2;Temp;Humidity;BMP_temperature;BMP_pressure;BME280_temperature;BME280_humidity;BME280_pressure;Samples;Min_cycle;Max_cycle;Signal;HPM_P1;HPM_P2
2022/05/16 00:02:10;;;;;;;5.20;1.48;;;;;;;16.21;100.00;99351.13;7396112;19;20010;-59
2022/05/16 00:04:38;;;;;;;8.10;3.40;;;;;;;16.25;100.00;99360.03;7393298;19;20747;-59
2022/05/16 00:07:05;;;;;;;2.05;1.17;;;;;;;16.26;100.00;99365.16;7392488;19;20010;-59
2022/05/16 00:09:31;;;;;;;6.57;2.00;;;;;;;16.34;100.00;99366.06;7392217;19;20042;-59
2022/05/16 00:11:58;;;;;;;2.08;1.27;;;;;;;16.41;100.00;99359.88;7394893;19;20013;-59
2022/05/16 00:14:24;;;;;;;3.17;1.67;;;;;;;16.35;100.00;99347.91;7391769;19;20007;-59
2022/05/16 00:16:50;;;;;;;4.85;1.75;;;;;;;16.37;100.00;99353.75;7391582;19;20015;-59
2022/05/16 00:19:16;;;;;;;3.38;1.42;;;;;;;16.36;100.00;99351.50;7392992;19;20047;-59
2022/05/16 00:21:43;;;;;;;6.03;2.53;;;;;;;16.39;100.00;99347.63;7392052;19;20388;-58
2022/05/16 00:24:09;;;;;;;9.27;1.48;;;;;;;16.39;100.00;99345.59;7393793;19;20022;-58
2022/05/16 00:26:35;;;;;;;3.75;2.13;;;;;;;16.39;100.00;99337.16;7391915;19;20033;-58
2022/05/16 00:29:02;;;;;;;5.88;1.75;;;;;;;16.43;100.00;99331.22;7390883;19;20010;-58
2022/05/16 00:31:28;;;;;;;4.50;1.83;;;;;;;16.47;100.00;99318.41;7393395;19;20354;-58
2022/05/16 00:33:54;;;;;;;1.77;1.15;;;;;;;16.47;100.00;99324.03;7391944;19;20011;-58
2022/05/16 00:36:21;;;;;;;6.03;2.38;;;;;;;16.40;100.00;99319.00;7391144;19;20038;-59
2022/05/16 00:38:47;;;;;;;7.75;1.73;;;;;;;16.35;100.00;99328.25;7389166;19;20082;-59
2022/05/16 00:41:13;;;;;;;6.45;1.25;;;;;;;16.32;100.00;99329.31;7393494;19;20070;-59
2022/05/16 00:43:50;;;;;;;6.75;2.17;;;;;;;16.32;100.00;99334.94;7388837;19;20010;-59
2022/05/16 00:46:17;;;;;;;4.00;1.63;;;;;;;16.32;100.00;99334.94;7391538;19;20014;-59
2022/05/16 00:48:44;;;;;;;3.85;1.67;;;;;;;16.21;100.00;99334.28;7391569;19;20009;-59
2022/05/16 00:51:17;;;;;;;2.75;1.40;;;;;;;16.23;100.00;99338.09;7392142;19;20086;-59
2022/05/16 00:53:44;;;;;;;10.75;1.80;;;;;;;16.24;100.00;99319.94;7389694;19;20082;-59
2022/05/16 00:56:10;;;;;;;9.93;2.25;;;;;;;16.27;100.00;99315.31;7392777;19;20014;-59
2022/05/16 00:58:40;;;;;;;4.25;1.33;;;;;;;16.24;100.00;99319.94;7390177;19;20078;-59
2022/05/16 01:04:47;;;;;;;20.73;2.63;;;;;;;16.12;100.00;99321.34;7392351;19;20007;-59
2022/05/16 01:06:41;;;;;;;8.68;1.25;;;;;;;15.90;100.00;99321.56;7391134;19;20010;-59
2022/05/16 01:09:08;;;;;;;0.80;0.80;;;;;;;15.96;100.00;99308.22;7390615;19;20066;-60
2022/05/16 01:11:37;;;;;;;3.45;1.60;;;;;;;16.08;100.00;99304.03;7392293;19;20027;-59
2022/05/16 01:14:04;;;;;;;2.15;1.08;;;;;;;16.10;100.00;99311.91;7390167;19;20014;-59
2022/05/16 01:16:30;;;;;;;4.13;1.50;;;;;;;16.09;100.00;99319.59;7390192;19;20010;-59
2022/05/16 01:18:56;;;;;;;2.30;1.15;;;;;;;16.14;100.00;99323.63;7389091;19;20018;-60
2022/05/16 01:21:38;;;;;;;5.35;2.38;;;;;;;16.12;100.00;99321.34;7392111;19;20006;-59
2022/05/16 01:24:14;;;;;;;5.07;1.30;;;;;;;16.10;100.00;99325.97;7389583;19;20479;-59
2022/05/16 01:26:41;;;;;;;1.60;1.25;;;;;;;16.04;100.00;99314.81;7390542;19;20103;-59
2022/05/16 01:29:09;;;;;;;3.90;1.05;;;;;;;16.06;100.00;99322.69;7389680;19;20388;-60
2022/05/16 01:31:37;;;;;;;3.92;1.70;;;;;;;16.07;100.00;99316.53;7391950;19;20014;-60
2022/05/16 01:34:04;;;;;;;6.28;2.10;;;;;;;16.04;100.00;99316.84;7387263;19;20010;-60
2022/05/16 01:36:30;;;;;;;7.05;1.55;;;;;;;16.01;100.00;99324.28;7390019;19;20569;-59
2022/05/16 01:38:56;;;;;;;10.77;2.53;;;;;;;15.98;100.00;99318.94;7389015;19;20010;-59
2022/05/16 01:41:25;;;;;;;1.85;1.17;;;;;;;15.81;100.00;99308.63;7391976;19;20017;-59
2022/05/16 01:43:55;;;;;;;7.32;2.55;;;;;;;16.00;100.00;99319.19;7390564;19;20013;-59
2022/05/16 01:46:25;;;;;;;3.10;1.23;;;;;;;16.06;100.00;99312.22;7388956;19;20015;-60
2022/05/16 01:48:52;;;;;;;5.28;1.20;;;;;;;16.14;100.00;99327.19;7390730;19;20024;-60
2022/05/16 01:51:19;;;;;;;3.15;1.25;;;;;;;16.14;100.00;99324.38;7391004;19;20017;-59
2022/05/16 01:53:46;;;;;;;5.95;1.13;;;;;;;16.18;100.00;99313.63;7388544;19;20019;-59
2022/05/16 01:56:12;;;;;;;5.03;1.88;;;;;;;16.16;100.00;99310.56;7389654;19;20006;-59
2022/05/16 01:58:41;;;;;;;2.03;0.80;;;;;;;16.18;100.00;99308.00;7387357;19;20075;-60
2022/05/16 02:01:08;;;;;;;4.22;1.60;;;;;;;16.17;100.00;99300.09;7390721;19;20018;-60
2022/05/16 02:03:43;;;;;;;4.40;1.27;;;;;;;16.07;100.00;99305.31;7388866;19;20491;-59
2022/05/16 02:06:09;;;;;;;6.32;1.50;;;;;;;16.09;100.00;99302.72;7387706;19;20014;-59
2022/05/16 02:08:37;;;;;;;3.22;1.65;;;;;;;16.09;100.00;99294.28;7389586;19;20070;-59
2022/05/16 02:11:05;;;;;;;5.40;1.55;;;;;;;16.12;100.00;99303.72;7387932;19;20087;-59
2022/05/16 02:13:38;;;;;;;17.25;4.40;;;;;;;16.06;100.00;99295.38;7388615;19;20033;-59
2022/05/16 02:16:07;;;;;;;2.17;0.80;;;;;;;16.07;100.00;99299.69;7389633;19;20015;-59
2022/05/16 02:18:34;;;;;;;4.63;1.05;;;;;;;16.04;100.00;99297.94;7387487;19;20017;-59
2022/05/16 02:26:29;;;;;;;5.47;2.05;;;;;;;15.88;100.00;99290.44;7390676;19;20066;-59
2022/05/16 02:28:56;;;;;;;5.78;1.00;;;;;;;15.86;100.00;99290.22;7388641;19;20010;-59
2022/05/16 02:31:22;;;;;;;3.92;1.40;;;;;;;15.86;100.00;99290.97;7388867;19;20027;-59
2022/05/16 02:33:48;;;;;;;3.13;1.45;;;;;;;15.76;100.00;99275.00;7387977;19;20013;-59
2022/05/16 02:36:15;;;;;;;2.88;2.25;;;;;;;15.82;100.00;99281.31;7390968;19;20035;-59
2022/05/16 02:38:42;;;;;;;2.00;1.52;;;;;;;15.83;100.00;99274.44;7393878;19;20022;-59
2022/05/16 02:41:08;;;;;;;9.60;1.67;;;;;;;15.81;100.00;99276.97;7400415;19;20453;-59
2022/05/16 02:43:34;;;;;;;2.28;0.75;;;;;;;15.82;100.00;99267.28;7395413;19;20074;-59
2022/05/16 02:46:01;;;;;;;1.42;1.05;;;;;;;15.88;100.00;99262.34;7395426;19;20569;-59
2022/05/16 02:48:27;;;;;;;10.13;1.42;;;;;;;15.90;100.00;99254.16;7394722;19;20014;-59
2022/05/16 02:50:53;;;;;;;2.00;1.25;;;;;;;15.93;100.00;99258.75;7394954;19;20022;-59
2022/05/16 02:53:19;;;;;;;0.85;0.63;;;;;;;15.88;100.00;99262.34;7394503;19;20473;-59
2022/05/16 02:55:45;;;;;;;8.68;2.42;;;;;;;15.82;100.00;99254.00;7396122;19;20026;-59
2022/05/16 02:58:11;;;;;;;11.95;1.63;;;;;;;15.82;100.00;99253.25;7393711;19;20099;-59
2022/05/16 03:00:38;;;;;;;2.97;1.23;;;;;;;15.95;100.00;99267.41;7395757;19;20007;-59
2022/05/16 03:03:05;;;;;;;2.47;1.42;;;;;;;15.96;100.00;99271.72;7399551;19;20019;-59
2022/05/16 03:05:31;;;;;;;2.17;0.88;;;;;;;15.96;100.00;99274.53;7395305;19;20046;-59
2022/05/16 03:07:58;;;;;;;1.75;0.88;;;;;;;15.99;100.00;99272.72;7393287;19;20038;-59
2022/05/16 03:10:26;;;;;;;2.80;0.85;;;;;;;16.05;100.00;99262.94;7393974;19;20328;-59
2022/05/16 03:15:31;;;;;;;4.95;1.10;;;;;;;16.05;100.00;99262.94;7385828;19;20126;-82
2022/05/16 03:17:58;;;;;;;4.10;1.40;;;;;;;15.98;100.00;99257.94;7386766;19;20113;-83
2022/05/16 03:20:24;;;;;;;1.75;0.88;;;;;;;15.96;100.00;99256.94;7387844;19;20022;-81
2022/05/16 03:22:50;;;;;;;2.38;1.58;;;;;;;15.92;100.00;99257.97;7395629;19;20025;-82
2022/05/16 03:25:16;;;;;;;2.20;0.88;;;;;;;15.95;100.00;99250.53;7389897;19;20018;-81
2022/05/16 03:27:43;;;;;;;3.70;1.65;;;;;;;15.90;100.00;99245.75;7394485;19;20107;-83
2022/05/16 03:30:09;;;;;;;4.13;1.02;;;;;;;15.87;100.00;99236.31;7387385;19;20330;-82
2022/05/16 03:32:36;;;;;;;5.32;1.80;;;;;;;15.89;100.00;99233.00;7391490;19;20018;-82
2022/05/16 03:35:03;;;;;;;1.17;0.50;;;;;;;15.87;100.00;99235.59;7386766;19;20015;-83
2022/05/16 03:37:29;;;;;;;1.67;0.85;;;;;;;15.84;100.00;99237.38;7389307;19;20015;-83
2022/05/16 03:42:40;;;;;;;3.85;0.90;;;;;;;15.87;100.00;99235.59;7397069;19;20756;-82
2022/05/16 03:45:07;;;;;;;2.90;1.27;;;;;;;15.89;100.00;99230.19;7390365;19;20007;-82
2022/05/16 03:47:33;;;;;;;7.63;1.30;;;;;;;15.84;100.00;99236.63;7389412;19;20624;-81
2022/05/16 03:49:59;;;;;;;1.55;0.73;;;;;;;15.84;100.00;99240.19;7392427;19;20014;-82
2022/05/16 03:52:26;;;;;;;3.05;1.23;;;;;;;16.00;100.00;99240.53;7395028;19;20069;-82
2022/05/16 03:54:52;;;;;;;2.25;1.42;;;;;;;15.97;100.00;99244.41;7389945;19;20014;-82
2022/05/16 03:57:18;;;;;;;2.92;1.40;;;;;;;15.96;100.00;99246.44;7393857;19;20022;-80
2022/05/16 03:59:47;;;;;;;0.98;0.85;;;;;;;16.01;100.00;99240.00;7392022;19;20520;-81
2022/05/16 04:02:13;;;;;;;2.75;1.23;;;;;;;16.07;100.00;99239.97;7393248;19;20035;-82
2022/05/16 04:04:39;;;;;;;2.30;0.88;;;;;;;16.07;100.00;99239.97;7390409;19;20010;-80
2022/05/16 04:07:05;;;;;;;1.63;1.00;;;;;;;16.09;100.00;99243.00;7390397;19;20022;-81
2022/05/16 04:09:32;;;;;;;5.88;1.63;;;;;;;16.15;100.00;99244.47;7391161;19;20014;-80
2022/05/16 04:11:58;;;;;;;1.85;0.75;;;;;;;16.20;100.00;99243.59;7390981;19;20018;-80
2022/05/16 04:14:25;;;;;;;4.75;2.08;;;;;;;16.25;100.00;99245.59;7387062;19;20025;-87
2022/05/16 04:16:51;;;;;;;3.15;1.40;;;;;;;16.31;100.00;99243.47;7387139;19;20026;-87
2022/05/16 04:19:17;;;;;;;1.42;0.75;;;;;;;16.34;100.00;99236.81;7385671;19;20685;-88
2022/05/16 04:21:43;;;;;;;2.45;1.60;;;;;;;16.37;100.00;99230.09;7388919;19;20404;-87
2022/05/16 04:24:09;;;;;;;4.13;1.40;;;;;;;16.41;100.00;99219.34;7391718;19;20014;-87
2022/05/16 04:26:36;;;;;;;1.77;1.65;;;;;;;16.41;100.00;99227.78;7389742;19;20011;-87
2022/05/16 04:29:03;;;;;;;2.58;0.98;;;;;;;16.43;100.00;99244.88;7394438;19;20018;-87
2022/05/16 04:31:29;;;;;;;3.35;1.20;;;;;;;16.42;100.00;99234.91;7387444;19;20018;-87
2022/05/16 04:33:56;;;;;;;2.88;1.25;;;;;;;16.47;100.00;99234.09;7388391;19;20031;-88
2022/05/16 04:36:22;;;;;;;6.30;1.42;;;;;;;16.49;100.00;99248.38;7388194;19;20014;-87
2022/05/16 04:38:48;;;;;;;0.90;0.85;;;;;;;16.47;100.00;99239.72;7388388;19;20018;-87
2022/05/16 04:43:59;;;;;;;1.05;0.93;;;;;;;16.52;100.00;99241.69;7391684;19;20019;-86
2022/05/16 04:46:25;;;;;;;3.25;1.05;;;;;;;16.57;100.00;99232.44;7394170;19;20022;-86
2022/05/16 04:48:51;;;;;;;6.65;2.03;;;;;;;16.60;100.00;99242.63;7395477;19;20609;-86
2022/05/16 04:51:17;;;;;;;2.60;0.93;;;;;;;16.58;100.00;99233.97;7395181;19;20483;-89
2022/05/16 04:53:43;;;;;;;6.80;1.60;;;;;;;16.65;100.00;99238.22;7393850;19;20124;-87
2022/05/16 04:56:10;;;;;;;9.43;2.58;;;;;;;16.62;100.00;99245.66;7395858;19;20046;-86
2022/05/16 04:58:36;;;;;;;2.65;1.33;;;;;;;16.62;100.00;99240.03;7392572;19;20018;-85
2022/05/16 05:01:03;;;;;;;3.65;1.63;;;;;;;16.62;100.00;99251.28;7394991;19;20014;-85
2022/05/16 05:03:30;;;;;;;0.80;0.32;;;;;;;16.62;100.00;99251.28;7392500;19;20086;-85
2022/05/16 05:05:56;;;;;;;1.27;0.70;;;;;;;16.68;100.00;99259.63;7394037;19;20460;-87
2022/05/16 05:08:22;;;;;;;2.58;0.93;;;;;;;16.67;100.00;99270.13;7394436;19;20083;-85
2022/05/16 05:16:22;;;;;;;3.38;1.25;;;;;;;16.73;100.00;99269.28;7393715;19;20047;-86
2022/05/16 05:18:48;;;;;;;4.72;1.98;;;;;;;16.78;100.00;99271.28;7390871;19;20023;-84
2022/05/16 05:21:15;;;;;;;3.13;1.67;;;;;;;16.82;100.00;99274.53;7392419;19;20007;-85
2022/05/16 05:23:41;;;;;;;15.18;2.63;;;;;;;16.80;100.00;99277.13;7391247;19;20354;-87
2022/05/16 05:26:09;;;;;;;2.63;1.38;;;;;;;16.76;100.00;99288.69;7392122;19;20021;-85
2022/05/16 05:28:37;;;;;;;5.13;1.27;;;;;;;16.78;100.00;99291.72;7389237;19;20031;-87
2022/05/16 05:31:03;;;;;;;4.97;1.13;;;;;;;16.81;100.00;99295.50;7392532;19;20021;-83
2022/05/16 05:33:29;;;;;;;5.55;1.73;;;;;;;16.81;100.00;99295.50;7388079;19;20047;-83
2022/05/16 05:35:56;;;;;;;1.30;0.70;;;;;;;16.77;100.00;99283.81;7386182;19;20014;-83
2022/05/16 05:38:24;;;;;;;3.55;1.33;;;;;;;16.79;100.00;99290.41;7384917;19;20019;-83
2022/05/16 05:40:50;;;;;;;9.38;1.65;;;;;;;16.84;100.00;99289.59;7386075;19;20015;-83
2022/05/16 05:43:16;;;;;;;2.75;1.45;;;;;;;16.83;100.00;99287.31;7386811;19;20041;-83
2022/05/16 05:45:44;;;;;;;2.75;0.98;;;;;;;16.88;100.00;99292.84;7386641;19;20015;-84
2022/05/16 05:48:10;;;;;;;3.70;1.30;;;;;;;16.90;100.00;99292.31;7386893;19;20035;-84
2022/05/16 05:50:36;;;;;;;2.30;1.33;;;;;;;16.92;100.00;99281.28;7388000;19;20469;-83
2022/05/16 05:53:02;;;;;;;7.47;1.88;;;;;;;17.00;100.00;99279.41;7392560;19;20022;-84
2022/05/16 05:55:31;;;;;;;4.80;1.42;;;;;;;17.07;100.00;99275.94;7387990;19;20021;-83
2022/05/16 05:58:00;;;;;;;4.53;1.30;;;;;;;17.09;100.00;99281.81;7387244;19;20829;-86
2022/05/16 06:00:26;;;;;;;1.08;0.93;;;;;;;17.17;100.00;99282.72;7391605;19;20018;-84
2022/05/16 06:02:53;;;;;;;7.45;1.45;;;;;;;17.28;100.00;99285.38;7390096;19;20038;-84
2022/05/16 06:05:21;;;;;;;4.45;1.17;;;;;;;17.35;100.00;99281.91;7386394;19;20488;-84
2022/05/16 06:07:47;;;;;;;5.38;2.30;;;;;;;17.48;100.00;99287.59;7386525;19;20357;-84
2022/05/16 06:10:14;;;;;;;3.67;1.65;;;;;;;17.56;100.00;99280.06;7386169;19;20504;-84
2022/05/16 06:12:40;;;;;;;7.78;1.80;;;;;;;17.65;100.00;99288.09;7396148;19;20014;-83
2022/05/16 06:15:08;;;;;;;2.25;1.63;;;;;;;17.70;100.00;99294.94;7391190;19;20026;-84
2022/05/16 06:17:37;;;;;;;8.43;1.55;;;;;;;17.71;100.00;99297.22;7399863;19;20027;-84
2022/05/16 06:20:06;;;;;;;4.05;2.13;;;;;;;17.64;100.00;99309.13;7391969;19;20068;-84
2022/05/16 06:22:37;;;;;;;8.05;1.90;;;;;;;17.58;100.00;99311.28;7398259;19;20010;-83
2022/05/16 06:27:50;;;;;;;6.22;1.75;;;;;;;17.50;100.00;99321.63;7396050;19;20742;-83
2022/05/16 06:30:19;;;;;;;7.43;2.15;;;;;;;17.41;100.00;99328.38;7389380;19;20077;-84
2022/05/16 06:32:46;;;;;;;9.98;2.38;;;;;;;17.37;100.00;99321.53;7397997;19;20341;-84
2022/05/16 06:35:13;;;;;;;3.15;1.75;;;;;;;17.38;100.00;99320.25;7390208;19;20019;-83
2022/05/16 06:37:39;;;;;;;5.30;2.05;;;;;;;17.37;100.00;99318.72;7393714;19;20010;-83
2022/05/16 06:40:07;;;;;;;2.40;1.58;;;;;;;17.33;100.00;99318.28;7392456;19;20014;-84
2022/05/16 06:42:36;;;;;;;7.88;1.95;;;;;;;17.22;100.00;99313.59;7395628;19;20022;-83
2022/05/16 06:45:04;;;;;;;4.07;1.75;;;;;;;17.21;100.00;99317.72;7392172;19;20022;-84
2022/05/16 06:47:30;;;;;;;9.27;1.90;;;;;;;17.19;100.00;99302.66;7392130;19;20016;-84
2022/05/16 06:49:56;;;;;;;6.47;2.55;;;;;;;17.22;100.00;99307.19;7393691;19;20023;-84
2022/05/16 06:52:24;;;;;;;5.60;1.55;;;;;;;17.11;100.00;99310.16;7394238;19;20026;-83
2022/05/16 06:54:51;;;;;;;3.70;2.28;;;;;;;17.06;100.00;99313.84;7393474;19;20023;-82
2022/05/16 06:57:17;;;;;;;5.03;1.83;;;;;;;17.06;100.00;99311.03;7395362;19;20026;-83
2022/05/16 06:59:44;;;;;;;9.15;2.00;;;;;;;16.85;100.00;99313.59;7390743;19;20018;-84
2022/05/16 07:02:10;;;;;;;9.50;2.28;;;;;;;16.82;100.00;99308.28;7394642;19;20018;-83
2022/05/16 07:04:39;;;;;;;3.80;1.83;;;;;;;16.85;100.00;99324.09;7391039;19;20022;-83
2022/05/16 07:07:08;;;;;;;5.13;1.75;;;;;;;16.91;100.00;99322.75;7391879;19;20018;-83
2022/05/16 07:09:39;;;;;;;6.50;2.75;;;;;;;16.94;100.00;99320.91;7393830;19;20026;-83
2022/05/16 07:12:07;;;;;;;5.40;2.33;;;;;;;16.99;100.00;99322.88;7395278;19;20499;-83
2022/05/16 07:14:34;;;;;;;5.10;2.22;;;;;;;17.02;100.00;99327.44;7390232;19;20425;-82
2022/05/16 07:17:01;;;;;;;5.20;2.30;;;;;;;17.05;100.00;99327.13;7393410;19;20022;-82
2022/05/16 07:19:31;;;;;;;5.38;1.73;;;;;;;17.06;100.00;99330.72;7388288;19;20081;-82
2022/05/16 07:21:58;;;;;;;20.53;2.17;;;;;;;17.09;100.00;99338.06;7392389;19;20021;-82
2022/05/16 07:24:25;;;;;;;7.50;1.83;;;;;;;17.12;100.00;99342.66;7388671;19;20014;-83
2022/05/16 07:29:38;;;;;;;9.60;2.85;;;;;;;17.20;100.00;99347.13;7390915;19;20487;-82
2022/05/16 07:32:05;;;;;;;6.72;2.20;;;;;;;17.24;100.00;99338.38;7392995;19;20041;-84
2022/05/16 07:34:31;;;;;;;9.02;1.67;;;;;;;17.38;100.00;99342.78;7387972;19;20018;-84
2022/05/16 07:36:57;;;;;;;3.03;2.17;;;;;;;17.46;100.00;99346.47;7391634;19;20487;-82
2022/05/16 07:39:23;;;;;;;5.63;2.78;;;;;;;17.45;100.00;99344.97;7390447;19;20086;-84
2022/05/16 07:41:52;;;;;;;6.03;1.85;;;;;;;17.53;100.00;99353.56;7395801;19;20048;-85
2022/05/16 07:44:18;;;;;;;7.32;2.08;;;;;;;17.53;100.00;99359.97;7390368;19;20018;-86
2022/05/16 07:46:44;;;;;;;11.07;2.65;;;;;;;17.42;100.00;99365.75;7394116;19;20019;-85
2022/05/16 07:49:13;;;;;;;7.75;2.60;;;;;;;17.40;100.00;99362.72;7392652;19;20018;-84
2022/05/16 07:51:40;;;;;;;4.60;2.25;;;;;;;17.37;100.00;99370.16;7393084;19;20010;-85
2022/05/16 07:54:08;;;;;;;4.35;1.63;;;;;;;17.42;100.00;99365.75;7388918;19;20025;-84
2022/05/16 07:56:34;;;;;;;13.43;2.20;;;;;;;17.46;100.00;99383.09;7392609;19;20014;-84
2022/05/16 07:59:02;;;;;;;3.00;1.42;;;;;;;17.44;100.00;99385.69;7393245;19;20018;-85
2022/05/16 08:01:28;;;;;;;8.75;2.55;;;;;;;17.33;100.00;99385.84;7397505;19;20035;-83
2022/05/16 08:03:55;;;;;;;5.30;1.52;;;;;;;17.28;100.00;99395.13;7390562;19;20021;-85
2022/05/16 08:06:21;;;;;;;13.63;1.90;;;;;;;17.32;100.00;99404.03;7392690;19;20018;-84
2022/05/16 08:11:32;;;;;;;2.63;1.58;;;;;;;17.21;100.00;99407.00;7390852;19;20014;-84
2022/05/16 08:13:58;;;;;;;4.57;1.70;;;;;;;17.18;100.00;99405.22;7393996;19;20038;-85
2022/05/16 08:16:24;;;;;;;4.07;2.35;;;;;;;17.13;100.00;99411.72;7394413;19;20788;-84
2022/05/16 08:18:50;;;;;;;2.85;1.65;;;;;;;17.06;100.00;99412.31;7391686;19;20014;-84
2022/05/16 08:21:16;;;;;;;5.28;1.92;;;;;;;17.06;100.00;99409.50;7393794;19;20086;-84
2022/05/16 08:23:43;;;;;;;6.68;1.98;;;;;;;16.99;100.00;99407.28;7393858;19;20118;-84
2022/05/16 08:26:10;;;;;;;3.60;1.65;;;;;;;16.99;100.00;99416.47;7393634;19;20018;-85
2022/05/16 08:28:36;;;;;;;22.15;3.65;;;;;;;16.94;100.00;99417.31;7392531;19;20014;-84
2022/05/16 08:31:02;;;;;;;10.88;1.65;;;;;;;16.95;100.00;99418.06;7392594;19;20568;-85
2022/05/16 08:33:29;;;;;;;7.43;2.53;;;;;;;17.03;100.00;99419.75;7391811;19;20014;-84
2022/05/16 08:41:31;;;;;;;5.07;2.58;;;;;;;17.25;100.00;99416.66;7390249;19;20082;-83
2022/05/16 08:44:28;;;;;;;5.60;2.50;;;;;;;17.29;100.00;99413.53;7390294;19;20544;-83
2022/05/16 08:47:12;;;;;;;5.43;2.25;;;;;;;17.42;100.00;99416.41;7391142;19;20025;-83
2022/05/16 08:49:47;;;;;;;7.43;1.58;;;;;;;17.58;100.00;99423.91;7386766;19;20022;-83
2022/05/16 08:52:19;;;;;;;7.32;1.65;;;;;;;17.65;100.00;99419.72;7389812;19;20457;-83
2022/05/16 08:55:15;;;;;;;3.47;1.45;;;;;;;17.64;100.00;99416.13;7387905;19;20363;-82
2022/05/16 08:57:47;;;;;;;4.80;1.77;;;;;;;17.61;100.00;99425.63;7391139;19;20035;-83
2022/05/16 09:00:26;;;;;;;8.52;1.90;;;;;;;17.65;100.00;99428.91;7387298;19;20034;-85
2022/05/16 09:02:56;;;;;;;6.38;2.08;;;;;;;17.73;100.00;99434.69;7392241;19;20492;-83
2022/05/16 09:05:51;;;;;;;3.85;1.52;;;;;;;17.90;100.00;99440.81;7390321;19;20480;-82
2022/05/16 09:08:38;;;;;;;6.35;1.63;;;;;;;17.86;100.00;99438.34;7387837;19;20381;-82
2022/05/16 09:11:17;;;;;;;3.28;1.30;;;;;;;17.89;100.00;99448.50;7385923;19;20021;-82
2022/05/16 09:14:00;;;;;;;8.32;2.15;;;;;;;17.97;100.00;99443.78;7386469;19;20014;-83
2022/05/16 09:16:59;;;;;;;2.60;1.27;;;;;;;18.07;100.00;99453.34;7387599;19;20014;-83
2022/05/16 09:19:37;;;;;;;7.15;2.42;;;;;;;18.14;100.00;99452.72;7384285;19;20456;-84
2022/05/16 09:22:03;;;;;;;7.70;2.28;;;;;;;17.94;100.00;99461.75;7390123;19;20022;-86
2022/05/16 09:24:37;;;;;;;5.88;1.88;;;;;;;17.76;100.00;99470.97;7386397;19;20086;-84
2022/05/16 09:27:06;;;;;;;7.53;1.88;;;;;;;17.61;100.00;99472.75;7388797;19;20018;-83
2022/05/16 09:29:42;;;;;;;7.15;1.50;;;;;;;17.59;100.00;99475.34;7385003;19;20018;-81
2022/05/16 09:32:08;;;;;;;18.27;2.35;;;;;;;17.57;100.00;99475.88;7388898;19;20018;-84
2022/05/16 09:34:34;;;;;;;12.23;1.92;;;;;;;17.56;100.00;99488.44;7385724;19;20342;-83
2022/05/16 09:37:01;;;;;;;9.25;3.00;;;;;;;17.63;100.00;99492.72;7387604;19;20021;-83
2022/05/16 09:39:31;;;;;;;6.28;2.60;;;;;;;17.70;100.00;99490.03;7385137;19;20010;-83
2022/05/16 09:42:02;;;;;;;10.70;2.72;;;;;;;17.82;100.00;99494.19;7390826;19;20014;-83
2022/05/16 09:44:34;;;;;;;11.02;3.88;;;;;;;17.79;100.00;99486.84;7383957;19;20342;-83
2022/05/16 09:47:45;;;;;;;6.20;2.30;;;;;;;17.67;100.00;99499.53;7385652;19;20011;-85
2022/05/16 09:50:20;;;;;;;8.07;3.15;;;;;;;17.63;100.00;99499.06;7385410;19;20491;-85
2022/05/16 09:53:09;;;;;;;10.52;2.50;;;;;;;17.65;100.00;99502.13;7392032;19;20015;-84
2022/05/16 09:55:55;;;;;;;17.30;3.53;;;;;;;17.89;100.00;99498.44;7387510;19;20106;-84
2022/05/16 09:58:26;;;;;;;7.40;2.65;;;;;;;17.96;100.00;99509.88;7387873;19;20371;-85
2022/05/16 10:01:01;;;;;;;16.30;4.40;;;;;;;18.02;100.00;99499.28;7386554;19;20025;-84
2022/05/16 10:03:30;;;;;;;9.98;3.28;;;;;;;18.24;100.00;99498.16;7387053;19;20832;-85
2022/05/16 10:05:59;;;;;;;15.13;3.05;;;;;;;18.34;100.00;99509.81;7386362;19;20022;-85
2022/05/16 10:08:52;;;;;;;13.68;4.72;;;;;;;18.45;100.00;99504.75;7388343;19;20014;-85
2022/05/16 10:11:22;;;;;;;7.45;2.90;;;;;;;18.73;100.00;99507.13;7387916;19;20472;-85
2022/05/16 10:13:49;;;;;;;16.98;5.60;;;;;;;19.26;100.00;99503.00;7386730;19;20026;-85
2022/05/16 10:16:18;;;;;;;11.00;3.72;;;;;;;19.51;100.00;99501.47;7388320;19;20022;-85
2022/05/16 10:18:48;;;;;;;10.05;3.60;;;;;;;19.55;100.00;99499.09;7385471;19;20034;-84
2022/05/16 10:21:35;;;;;;;18.35;4.95;;;;;;;19.62;100.00;99498.41;7387970;19;20015;-84
2022/05/16 10:24:07;;;;;;;15.07;4.63;;;;;;;19.64;100.00;99489.41;7382687;19;20078;-85
2022/05/16 10:26:37;;;;;;;12.82;4.40;;;;;;;19.77;100.00;99485.78;7386335;19;20480;-85
2022/05/16 10:29:12;;;;;;;9.35;5.18;;;;;;;20.04;100.00;99490.03;7386615;19;20468;-86
2022/05/16 10:34:38;;;;;;;9.02;4.03;;;;;;;20.53;100.00;99496.53;7388615;19;20014;-84
2022/05/16 10:37:06;;;;;;;8.38;3.22;;;;;;;20.56;100.00;99492.63;7388774;19;20486;-86
2022/05/16 10:39:35;;;;;;;7.85;3.15;;;;;;;20.79;100.00;99493.53;7387018;19;20426;-88
2022/05/16 10:42:10;;;;;;;11.23;3.60;;;;;;;20.73;100.00;99503.50;7392678;19;20938;-88
2022/05/16 10:44:48;;;;;;;12.55;3.35;;;;;;;20.67;100.00;99506.47;7387490;19;20007;-87
2022/05/16 10:47:33;;;;;;;13.77;3.65;;;;;;;20.50;100.00;99520.31;7390663;19;20015;-86
2022/05/16 10:50:07;;;;;;;9.43;3.53;;;;;;;20.33;100.00;99529.22;7386716;19;20051;-82
2022/05/16 10:52:33;;;;;;;12.77;4.07;;;;;;;20.14;100.00;99527.84;7389250;19;20019;-85
2022/05/16 10:55:00;;;;;;;7.50;1.95;;;;;;;19.90;100.00;99525.31;7384385;19;20495;-85
2022/05/16 10:57:50;;;;;;;5.30;2.33;;;;;;;19.71;100.00;99524.72;7394296;19;20494;-87
2022/05/16 11:00:20;;;;;;;16.30;3.57;;;;;;;19.66;100.00;99527.09;7393312;19;20022;-85
2022/05/16 11:03:11;;;;;;;14.20;4.18;;;;;;;19.73;100.00;99522.09;7399289;19;20018;-86
2022/05/16 11:06:14;;;;;;;8.70;2.67;;;;;;;19.61;100.00;99528.00;7396115;19;20025;-86
2022/05/16 11:08:50;;;;;;;18.80;4.05;;;;;;;19.42;100.00;99524.53;7394090;19;20018;-84
2022/05/16 11:11:47;;;;;;;11.50;4.43;;;;;;;19.34;100.00;99526.47;7396020;19;20022;-86
2022/05/16 11:14:30;;;;;;;12.75;3.63;;;;;;;19.16;100.00;99530.16;7392494;19;20026;-84
2022/05/16 11:17:08;;;;;;;16.35;3.53;;;;;;;19.08;100.00;99532.09;7393763;19;20021;-84
2022/05/16 11:20:16;;;;;;;12.27;3.42;;;;;;;18.98;100.00;99528.19;7389834;19;20022;-84
2022/05/16 11:22:46;;;;;;;14.35;3.53;;;;;;;18.96;100.00;99532.84;7390042;19;20089;-85
2022/05/16 11:25:33;;;;;;;11.00;3.45;;;;;;;19.05;100.00;99538.84;7387599;19;20295;-84
2022/05/16 11:28:25;;;;;;;8.25;2.85;;;;;;;19.20;100.00;99536.25;7391178;19;20046;-85
2022/05/16 11:30:58;;;;;;;10.38;3.78;;;;;;;19.40;100.00;99541.28;7386910;19;20515;-84
2022/05/16 11:33:43;;;;;;;14.02;4.50;;;;;;;19.55;100.00;99547.13;7390072;19;20390;-83
2022/05/16 11:37:05;;;;;;;12.55;3.88;;;;;;;20.07;100.00;99539.81;7389354;19;20372;-85
2022/05/16 11:40:06;;;;;;;10.82;2.53;;;;;;;20.42;100.00;99537.19;7384729;19;20101;-84
2022/05/16 11:42:33;;;;;;;;;;;;;;;20.61;100.00;99539.06;7394668;19;20011;-84
2022/05/16 11:45:13;;;;;;;13.27;3.85;;;;;;;20.68;100.00;99539.13;7388864;19;19970;-85
2022/05/16 11:47:56;;;;;;;10.82;3.83;;;;;;;20.66;100.00;99524.75;7391272;19;20022;-85
2022/05/16 11:50:58;;;;;;;10.45;3.28;;;;;;;20.61;100.00;99537.00;7390004;19;20027;-85
2022/05/16 11:53:50;;;;;;;13.15;3.55;;;;;;;20.43;100.00;99537.97;7389844;19;20086;-84
2022/05/16 12:02:11;;;;;;;7.53;2.65;;;;;;;20.31;100.00;99542.38;7393798;19;20043;-85
2022/05/16 12:04:42;;;;;;;;;;;;;;;20.42;100.00;99551.34;7387493;19;20480;-85
2022/05/16 12:07:34;;;;;;;10.40;4.15;;;;;;;20.73;100.00;99549.53;7388110;19;20388;-85
2022/05/16 12:10:15;;;;;;;12.40;4.13;;;;;;;20.98;100.00;99545.03;7383445;19;20019;-85
2022/05/16 12:13:18;;;;;;;8.98;3.33;;;;;;;21.19;100.00;99549.91;7389636;19;20019;-86
2022/05/16 12:15:46;;;;;;;7.22;2.47;;;;;;;21.22;100.00;99555.25;7384896;19;20010;-86
2022/05/16 12:18:44;;;;;;;2.83;1.27;;;;;;;21.61;100.00;99549.22;7387170;19;20023;-87
2022/05/16 12:21:26;;;;;;;4.32;1.60;;;;;;;21.96;100.00;99546.94;7390750;19;20014;-87
2022/05/16 12:23:56;;;;;;;2.33;0.90;;;;;;;22.08;100.00;99554.53;7390533;19;20042;-85
2022/05/16 12:26:26;;;;;;;4.20;0.87;;;;;;;21.87;100.00;99551.81;7395870;19;20022;-86